Cairns AAF (Fort Rucker) Air Field
KOZR : now visible

Airfield :











YOU CAN JOIN US ON...

 
LOGIN :

Register | Disclaimer

   EN    FR    IT 

 









Legend :    VFR   Marginal VFR   IFR   Intensive IFR   Very Intensive IFR
Visi :
Ceiling :
>= 8 km
>= 3000ft
5 to 8 km
1000 to 3000 ft
1500m to 5 km
500 to 1000 ft
800 to 1500m
200 to 500 ft
< 800m
< 200 ft
Symbols :   Thunderstorms  Fog  Heavy snow  Heavy precipitations  Wind > 20 kt






- Airport Elevation : 301 ft


KOZR - Cairns AAF (Fort Rucker) Air Field

CURRENT METAR :
  • 291156Z 06006KT 10SM SCT120 07/03 A3001 RMK A02A RMK SLPNO RVRNO $

EXPIRED METARs :
  • 291056Z 03005KT 10SM SCT120 06/03 A3001 RMK A02A RMK SLPNO RVRNO $
  • 290956Z 03004KT 10SM SCT120 06/03 A3001 RMK A02A RMK SLPNO RVRNO $

TAF TAF KOZR
Valid from the 29 at 08:00 until the 30 at 14:00 UTC


290800Z 2908/3014 33006KT 9999 SCT150 QNH3000INS
BECMG 2909/2910 09006KT 9999 SCT100 BKN150 QNH2998INS
BECMG 2911/2912 09006KT 9999 VCSH FEW030 SCT060 BKN120 QNH2996INS
BECMG 2913/2914 06009KT 9000 -SHRA BKN040 OVC070 QNH2994INS
BECMG 2921/2922 06009KT 8000 -SHRA SCT008 BKN015 QNH2996INS
TEMPO 2923/3002 OVC004
BECMG 3001/3002 05009KT 9999 NSW BKN008 QNH3000INS TX18/2921Z TN02/2911Z



MET'MAP, your aeronautical weather chart ! - Copyright ORBIFLY December 2007 - Disclaimer

ORBIFLY MET'MAP TEAM :

Programming & Development : Alexandra Zaïnal
Concept & original design : Baudouin d'Aumeries
Assistance for programming : Marc-Olivier Méhu
Technical & hardware support : Manuel Goepfert

Contact : metmap@orbifly.com




SOURCES & CREDITS :

   NOAA       Earth
Advisory